createdAt,value
2017-10-15T00:01:01.493Z,1020.86
2017-10-15T00:02:10.498Z,1020.84
2017-10-15T00:03:19.883Z,1020.81
2017-10-15T00:04:29.178Z,1020.82
2017-10-15T00:05:38.099Z,1020.84
2017-10-15T00:06:47.074Z,1020.8
2017-10-15T00:07:55.915Z,1020.85
2017-10-15T00:09:04.910Z,1020.82
2017-10-15T00:10:13.754Z,1020.83
2017-10-15T00:11:22.629Z,1020.83
2017-10-15T00:12:31.808Z,1020.83
2017-10-15T00:13:41.153Z,1020.85
2017-10-15T00:14:49.997Z,1020.82
2017-10-15T00:15:58.833Z,1020.81
2017-10-15T00:17:07.675Z,1020.84
2017-10-15T00:18:16.677Z,1020.83
2017-10-15T00:19:26.123Z,1020.85
2017-10-15T00:20:35.012Z,1020.86
2017-10-15T00:21:43.917Z,1020.84
2017-10-15T00:22:52.803Z,1020.87
2017-10-15T00:24:01.652Z,1020.85
2017-10-15T00:25:10.493Z,1020.86
2017-10-15T00:26:19.762Z,1020.89
2017-10-15T00:27:28.779Z,1020.89
2017-10-15T00:28:37.626Z,1020.88
2017-10-15T00:29:46.875Z,1020.89
2017-10-15T00:30:55.805Z,1020.86
2017-10-15T00:32:04.742Z,1020.89
2017-10-15T00:33:13.611Z,1020.89
2017-10-15T00:34:22.453Z,1020.86
2017-10-15T00:35:31.642Z,1020.86
2017-10-15T00:36:40.832Z,1020.85
2017-10-15T00:37:50.079Z,1020.86
2017-10-15T00:38:59.270Z,1020.86
2017-10-15T00:40:08.189Z,1020.83
2017-10-15T00:41:17.140Z,1020.83
2017-10-15T00:42:26.319Z,1020.87
2017-10-15T00:43:35.491Z,1020.79
2017-10-15T00:44:44.328Z,1020.82
2017-10-15T00:45:53.208Z,1020.78
2017-10-15T00:47:02.052Z,1020.8
2017-10-15T00:48:11.057Z,1020.81
2017-10-15T00:49:20.309Z,1020.82
2017-10-15T00:50:29.150Z,1020.79
2017-10-15T00:51:38.008Z,1020.79
2017-10-15T00:52:46.932Z,1020.8
2017-10-15T00:53:55.784Z,1020.77
2017-10-15T00:55:04.791Z,1020.81
2017-10-15T00:56:13.732Z,1020.78
2017-10-15T00:57:22.573Z,1020.73
2017-10-15T00:58:31.412Z,1020.69
2017-10-15T00:59:40.413Z,1020.68
2017-10-15T01:00:49.260Z,1020.68
2017-10-15T01:01:58.169Z,1020.7
2017-10-15T01:03:07.015Z,1020.67
2017-10-15T01:04:15.870Z,1020.69
2017-10-15T01:05:24.921Z,1020.73
2017-10-15T01:06:34.155Z,1020.71
2017-10-15T01:07:43.337Z,1020.75
2017-10-15T01:08:52.248Z,1020.73
2017-10-15T01:10:01.156Z,1020.77
2017-10-15T01:11:09.993Z,1020.78
2017-10-15T01:12:18.833Z,1020.79
2017-10-15T01:13:27.898Z,1020.8
2017-10-15T01:14:37.010Z,1020.78
2017-10-15T01:15:46.193Z,1020.8
2017-10-15T01:16:55.263Z,1020.78
2017-10-15T01:18:04.176Z,1020.79
2017-10-15T01:19:13.073Z,1020.79
2017-10-15T01:20:21.989Z,1020.79
2017-10-15T01:21:30.829Z,1020.8
2017-10-15T01:22:39.673Z,1020.8
2017-10-15T01:23:49.202Z,1020.81
2017-10-15T01:24:58.246Z,1020.83
2017-10-15T01:26:07.187Z,1020.82
2017-10-15T01:27:16.095Z,1020.78
2017-10-15T01:28:25.522Z,1020.83
2017-10-15T01:29:34.455Z,1020.83
2017-10-15T01:30:43.475Z,1020.81
2017-10-15T01:31:52.357Z,1020.79
2017-10-15T01:33:01.518Z,1020.78
2017-10-15T01:34:10.764Z,1020.78
2017-10-15T01:35:19.766Z,1020.8
2017-10-15T01:36:29.002Z,1020.81
2017-10-15T01:37:37.843Z,1020.81
2017-10-15T01:38:46.726Z,1020.83
2017-10-15T01:39:55.667Z,1020.86
2017-10-15T01:41:04.504Z,1020.82
2017-10-15T01:42:13.539Z,1020.82
2017-10-15T01:43:22.377Z,1020.82
2017-10-15T01:44:31.662Z,1020.85
2017-10-15T01:45:40.598Z,1020.82
2017-10-15T01:46:49.442Z,1020.8
2017-10-15T01:47:58.284Z,1020.8
2017-10-15T01:49:07.553Z,1020.76
2017-10-15T01:50:16.887Z,1020.77
2017-10-15T01:51:25.725Z,1020.77
2017-10-15T01:52:34.567Z,1020.79
2017-10-15T01:53:43.408Z,1020.8
2017-10-15T01:54:52.403Z,1020.78
2017-10-15T01:56:01.256Z,1020.76
2017-10-15T01:57:10.308Z,1020.74
2017-10-15T01:58:19.153Z,1020.8
2017-10-15T01:59:28.165Z,1020.82
2017-10-15T02:00:37.328Z,1020.8
2017-10-15T02:01:46.174Z,1020.86
2017-10-15T02:02:55.093Z,1020.83
2017-10-15T02:04:03.931Z,1020.83
2017-10-15T02:05:12.784Z,1020.81
2017-10-15T02:06:21.671Z,1020.84
2017-10-15T02:07:30.522Z,1020.85
2017-10-15T02:08:39.382Z,1020.86
2017-10-15T02:09:48.566Z,1020.83
2017-10-15T02:10:57.407Z,1020.81
2017-10-15T02:12:06.582Z,1020.77
2017-10-15T02:13:15.621Z,1020.75
2017-10-15T02:14:24.492Z,1020.8
2017-10-15T02:15:33.332Z,1020.77
2017-10-15T02:16:42.174Z,1020.8
2017-10-15T02:17:51.016Z,1020.8
2017-10-15T02:18:59.853Z,1020.76
2017-10-15T02:20:08.695Z,1020.77
2017-10-15T02:21:17.543Z,1020.78
2017-10-15T02:22:26.742Z,1020.75
2017-10-15T02:23:35.909Z,1020.76
2017-10-15T02:24:45.136Z,1020.76
2017-10-15T02:25:54.019Z,1020.78
2017-10-15T02:27:03.340Z,1020.81
2017-10-15T02:28:12.625Z,1020.81
2017-10-15T02:29:21.463Z,1020.87
2017-10-15T02:30:30.327Z,1020.89
2017-10-15T02:31:39.143Z,1020.94
2017-10-15T02:32:47.985Z,1020.99
2017-10-15T02:33:56.825Z,1020.99
2017-10-15T02:35:05.672Z,1020.95
2017-10-15T02:36:14.510Z,1020.93
2017-10-15T02:37:23.354Z,1020.95
2017-10-15T02:38:32.539Z,1020.94
2017-10-15T02:39:41.377Z,1020.95
2017-10-15T02:40:50.298Z,1020.92
2017-10-15T02:41:59.367Z,1020.93
2017-10-15T02:43:08.335Z,1020.97
2017-10-15T02:44:17.181Z,1020.99
2017-10-15T02:45:26.401Z,1021
2017-10-15T02:46:35.241Z,1020.93
2017-10-15T02:47:44.085Z,1020.99
2017-10-15T02:48:52.926Z,1021.01
2017-10-15T02:50:01.762Z,1021
2017-10-15T02:51:10.605Z,1021
2017-10-15T02:52:19.445Z,1021.05
2017-10-15T02:53:28.290Z,1021.08
2017-10-15T02:54:37.121Z,1021.06
2017-10-15T02:55:45.967Z,1021.05
2017-10-15T02:56:55.145Z,1021.04
2017-10-15T02:58:03.984Z,1021.05
2017-10-15T02:59:12.826Z,1021.06
2017-10-15T03:00:21.661Z,1021.06
2017-10-15T03:01:30.501Z,1021.07
2017-10-15T03:02:39.341Z,1021.08
2017-10-15T03:03:48.182Z,1021.05
2017-10-15T03:04:57.025Z,1021.04
2017-10-15T03:06:05.863Z,1021.02
2017-10-15T03:07:14.706Z,1021.03
2017-10-15T03:08:23.544Z,1021.01
2017-10-15T03:09:32.378Z,1021.04
2017-10-15T03:10:41.218Z,1021.05
2017-10-15T03:11:50.060Z,1021.09
2017-10-15T03:12:58.903Z,1021.11
2017-10-15T03:14:07.741Z,1021.1
2017-10-15T03:15:16.581Z,1021.09
2017-10-15T03:16:25.414Z,1021.12
2017-10-15T03:17:34.259Z,1021.08
2017-10-15T03:18:43.103Z,1021.1
2017-10-15T03:19:51.939Z,1021.13
2017-10-15T03:21:00.779Z,1021.11
2017-10-15T03:22:09.617Z,1021.11
2017-10-15T03:23:18.461Z,1021.09
2017-10-15T03:24:27.302Z,1021.13
2017-10-15T03:25:36.147Z,1021.14
2017-10-15T03:26:44.981Z,1021.1
2017-10-15T03:27:53.823Z,1021.1
2017-10-15T03:29:02.666Z,1021.11
2017-10-15T03:30:11.509Z,1021.09
2017-10-15T03:31:20.355Z,1021.12
2017-10-15T03:32:29.194Z,1021.14
2017-10-15T03:33:38.032Z,1021.14
2017-10-15T03:34:46.870Z,1021.19
2017-10-15T03:35:55.709Z,1021.19
2017-10-15T03:37:04.556Z,1021.21
2017-10-15T03:38:13.399Z,1021.26
2017-10-15T03:39:22.234Z,1021.3
2017-10-15T03:40:31.131Z,1021.31
2017-10-15T03:41:39.954Z,1021.26
2017-10-15T03:42:48.789Z,1021.27
2017-10-15T03:43:57.626Z,1021.29
2017-10-15T03:45:06.467Z,1021.29
2017-10-15T03:46:15.311Z,1021.28
2017-10-15T03:47:24.142Z,1021.31
2017-10-15T03:48:32.971Z,1021.3
2017-10-15T03:49:41.811Z,1021.31
2017-10-15T03:50:50.640Z,1021.29
2017-10-15T03:51:59.816Z,1021.29
2017-10-15T03:53:08.652Z,1021.29
2017-10-15T03:54:17.487Z,1021.33
2017-10-15T03:55:26.317Z,1021.33
2017-10-15T03:56:35.498Z,1021.32
2017-10-15T03:57:44.340Z,1021.34
2017-10-15T03:58:53.174Z,1021.33
2017-10-15T04:00:02.012Z,1021.35
2017-10-15T04:01:10.845Z,1021.39
2017-10-15T04:02:19.680Z,1021.35
2017-10-15T04:03:28.516Z,1021.36
2017-10-15T04:04:37.353Z,1021.4
2017-10-15T04:05:46.209Z,1021.36
2017-10-15T04:06:55.387Z,1021.35
2017-10-15T04:08:04.218Z,1021.35
2017-10-15T04:09:13.050Z,1021.39
2017-10-15T04:10:21.886Z,1021.38
2017-10-15T04:11:30.730Z,1021.37
2017-10-15T04:12:39.563Z,1021.37
2017-10-15T04:13:48.404Z,1021.37
2017-10-15T04:14:57.235Z,1021.37
2017-10-15T04:16:06.071Z,1021.36
2017-10-15T04:17:14.906Z,1021.42
2017-10-15T04:18:23.745Z,1021.44
2017-10-15T04:19:32.579Z,1021.43
2017-10-15T04:20:41.412Z,1021.41
2017-10-15T04:21:50.250Z,1021.43
2017-10-15T04:22:59.084Z,1021.43
2017-10-15T04:24:07.925Z,1021.46
2017-10-15T04:25:16.765Z,1021.46
2017-10-15T04:26:25.597Z,1021.47
2017-10-15T04:27:34.436Z,1021.43
2017-10-15T04:28:43.268Z,1021.41
2017-10-15T04:29:52.105Z,1021.38
2017-10-15T04:31:00.949Z,1021.42
2017-10-15T04:32:09.779Z,1021.41
2017-10-15T04:33:18.613Z,1021.43
2017-10-15T04:34:27.447Z,1021.43
2017-10-15T04:35:36.284Z,1021.44
2017-10-15T04:36:45.117Z,1021.41
2017-10-15T04:37:53.956Z,1021.45
2017-10-15T04:39:02.792Z,1021.43
2017-10-15T04:40:11.628Z,1021.47
2017-10-15T04:41:20.465Z,1021.49
2017-10-15T04:42:29.303Z,1021.43
2017-10-15T04:43:38.137Z,1021.44
2017-10-15T04:44:46.969Z,1021.44
2017-10-15T04:45:55.808Z,1021.45
2017-10-15T04:47:04.647Z,1021.43
2017-10-15T04:48:13.482Z,1021.39
2017-10-15T04:49:22.319Z,1021.4
2017-10-15T04:50:31.155Z,1021.39
2017-10-15T04:51:39.990Z,1021.41
2017-10-15T04:52:48.831Z,1021.41
2017-10-15T04:53:57.666Z,1021.44
2017-10-15T04:55:06.499Z,1021.45
2017-10-15T04:56:15.333Z,1021.43
2017-10-15T04:57:24.170Z,1021.46
2017-10-15T04:58:33.008Z,1021.45
2017-10-15T04:59:41.849Z,1021.45
2017-10-15T05:00:50.676Z,1021.39
2017-10-15T05:01:59.513Z,1021.4
2017-10-15T05:03:08.353Z,1021.37
2017-10-15T05:04:17.188Z,1021.35
2017-10-15T05:05:26.022Z,1021.36
2017-10-15T05:06:34.853Z,1021.39
2017-10-15T05:07:43.687Z,1021.38
2017-10-15T05:08:52.532Z,1021.39
2017-10-15T05:10:01.358Z,1021.42
2017-10-15T05:11:10.193Z,1021.43
2017-10-15T05:12:19.031Z,1021.45
2017-10-15T05:13:27.860Z,1021.45
2017-10-15T05:14:36.695Z,1021.43
2017-10-15T05:15:45.875Z,1021.47
2017-10-15T05:16:54.707Z,1021.42
2017-10-15T05:18:03.540Z,1021.46
2017-10-15T05:19:12.379Z,1021.47
2017-10-15T05:20:21.217Z,1021.46
2017-10-15T05:21:30.059Z,1021.5
2017-10-15T05:22:38.890Z,1021.49
2017-10-15T05:23:47.725Z,1021.49
2017-10-15T05:24:56.559Z,1021.5
2017-10-15T05:26:05.398Z,1021.49
2017-10-15T05:27:14.231Z,1021.55
2017-10-15T05:28:23.412Z,1021.54
2017-10-15T05:29:32.251Z,1021.58
2017-10-15T05:30:41.084Z,1021.57
2017-10-15T05:31:49.926Z,1021.61
2017-10-15T05:32:58.762Z,1021.57
2017-10-15T05:34:07.597Z,1021.53
2017-10-15T05:35:16.432Z,1021.54
2017-10-15T05:36:25.264Z,1021.54
2017-10-15T05:37:34.102Z,1021.52
2017-10-15T05:38:42.938Z,1021.51
2017-10-15T05:39:51.778Z,1021.56
2017-10-15T05:41:00.614Z,1021.57
2017-10-15T05:42:09.451Z,1021.53
2017-10-15T05:43:18.620Z,1021.52
2017-10-15T05:44:27.452Z,1021.53
2017-10-15T05:45:36.285Z,1021.54
2017-10-15T05:46:45.120Z,1021.54
2017-10-15T05:47:53.955Z,1021.54
2017-10-15T05:49:02.787Z,1021.55
2017-10-15T05:50:11.626Z,1021.55
2017-10-15T05:51:20.466Z,1021.58
2017-10-15T05:52:29.297Z,1021.57
2017-10-15T05:53:38.135Z,1021.59
2017-10-15T05:54:46.974Z,1021.58
2017-10-15T05:55:56.141Z,1021.54
2017-10-15T05:57:04.975Z,1021.56
2017-10-15T05:58:13.818Z,1021.55
2017-10-15T05:59:22.653Z,1021.55
2017-10-15T06:00:31.491Z,1021.53
2017-10-15T06:01:40.326Z,1021.56
2017-10-15T06:02:49.164Z,1021.53
2017-10-15T06:03:58.343Z,1021.53
2017-10-15T06:05:07.180Z,1021.52
2017-10-15T06:06:16.010Z,1021.52
2017-10-15T06:07:24.847Z,1021.55
2017-10-15T06:08:33.683Z,1021.55
2017-10-15T06:09:42.520Z,1021.6
2017-10-15T06:10:51.361Z,1021.54
2017-10-15T06:12:00.193Z,1021.55
2017-10-15T06:13:09.050Z,1021.56
2017-10-15T06:14:17.871Z,1021.55
2017-10-15T06:15:26.702Z,1021.55
2017-10-15T06:16:35.540Z,1021.53
2017-10-15T06:17:44.377Z,1021.56
2017-10-15T06:18:53.211Z,1021.53
2017-10-15T06:20:02.042Z,1021.55
2017-10-15T06:21:10.882Z,1021.59
2017-10-15T06:22:19.717Z,1021.66
2017-10-15T06:23:28.550Z,1021.66
2017-10-15T06:24:37.382Z,1021.68
2017-10-15T06:25:46.220Z,1021.66
2017-10-15T06:26:55.053Z,1021.67
2017-10-15T06:28:03.888Z,1021.72
2017-10-15T06:29:12.732Z,1021.69
2017-10-15T06:30:21.563Z,1021.67
2017-10-15T06:31:30.395Z,1021.69
2017-10-15T06:32:39.240Z,1021.68
2017-10-15T06:33:48.068Z,1021.67
2017-10-15T06:34:56.910Z,1021.76
2017-10-15T06:36:05.745Z,1021.76
2017-10-15T06:37:14.582Z,1021.79
2017-10-15T06:38:23.410Z,1021.8
2017-10-15T06:39:32.248Z,1021.77
2017-10-15T06:40:41.080Z,1021.8
2017-10-15T06:41:49.920Z,1021.81
2017-10-15T06:42:58.758Z,1021.81
2017-10-15T06:44:07.590Z,1021.82
2017-10-15T06:45:16.426Z,1021.81
2017-10-15T06:46:25.269Z,1021.83
2017-10-15T06:47:34.100Z,1021.87
2017-10-15T06:48:42.941Z,1021.9
2017-10-15T06:49:51.774Z,1021.91
2017-10-15T06:51:00.609Z,1021.9
2017-10-15T06:52:09.451Z,1021.83
2017-10-15T06:53:18.280Z,1021.86
2017-10-15T06:54:27.115Z,1021.86
2017-10-15T06:55:35.953Z,1021.88
2017-10-15T06:56:44.790Z,1021.85
2017-10-15T06:57:53.624Z,1021.89
2017-10-15T06:59:02.464Z,1021.92
2017-10-15T07:00:11.297Z,1021.97
2017-10-15T07:01:20.134Z,1021.92
2017-10-15T07:02:28.972Z,1021.98
2017-10-15T07:03:37.802Z,1021.97
2017-10-15T07:04:46.656Z,1022
2017-10-15T07:05:55.475Z,1021.99
2017-10-15T07:07:04.309Z,1021.99
2017-10-15T07:08:13.147Z,1021.98
2017-10-15T07:09:22.322Z,1022
2017-10-15T07:10:31.154Z,1022
2017-10-15T07:11:39.988Z,1022.01
2017-10-15T07:12:48.827Z,1022.03
2017-10-15T07:13:57.665Z,1022.01
2017-10-15T07:15:06.503Z,1022.03
2017-10-15T07:16:15.345Z,1022.03
2017-10-15T07:17:24.181Z,1022.06
2017-10-15T07:18:33.021Z,1022.05
2017-10-15T07:19:41.856Z,1022.05
2017-10-15T07:20:50.695Z,1022.04
2017-10-15T07:21:59.524Z,1022.07
2017-10-15T07:23:08.361Z,1022.07
2017-10-15T07:24:17.192Z,1022.05
2017-10-15T07:25:26.034Z,1022.08
2017-10-15T07:26:34.872Z,1022.09
2017-10-15T07:27:43.705Z,1022.1
2017-10-15T07:28:52.539Z,1022.11
2017-10-15T07:30:01.383Z,1022.11
2017-10-15T07:31:10.216Z,1022.14
2017-10-15T07:32:19.058Z,1022.17
2017-10-15T07:33:27.891Z,1022.16
2017-10-15T07:34:36.726Z,1022.18
2017-10-15T07:35:45.561Z,1022.18
2017-10-15T07:36:54.398Z,1022.17
2017-10-15T07:38:03.575Z,1022.21
2017-10-15T07:39:12.407Z,1022.19
2017-10-15T07:40:21.245Z,1022.22
2017-10-15T07:41:30.076Z,1022.22
2017-10-15T07:42:38.914Z,1022.25
2017-10-15T07:43:47.753Z,1022.24
2017-10-15T07:44:56.591Z,1022.22
2017-10-15T07:46:05.427Z,1022.25
2017-10-15T07:47:14.266Z,1022.27
2017-10-15T07:48:23.105Z,1022.29
2017-10-15T07:49:31.935Z,1022.27
2017-10-15T07:50:40.772Z,1022.27
2017-10-15T07:51:49.607Z,1022.27
2017-10-15T07:52:58.443Z,1022.3
2017-10-15T07:54:07.280Z,1022.29
2017-10-15T07:55:16.120Z,1022.31
2017-10-15T07:56:24.957Z,1022.29
2017-10-15T07:57:33.802Z,1022.3
2017-10-15T07:58:42.632Z,1022.31
2017-10-15T07:59:51.466Z,1022.32
2017-10-15T08:01:00.651Z,1022.31
2017-10-15T08:02:09.484Z,1022.34
2017-10-15T08:03:18.316Z,1022.32
2017-10-15T08:04:27.163Z,1022.32
2017-10-15T08:05:36.002Z,1022.29
2017-10-15T08:06:44.836Z,1022.28
2017-10-15T08:07:53.678Z,1022.28
2017-10-15T08:09:02.515Z,1022.28
2017-10-15T08:10:11.355Z,1022.24
2017-10-15T08:11:20.192Z,1022.27
2017-10-15T08:12:29.032Z,1022.24
2017-10-15T08:13:37.865Z,1022.28
2017-10-15T08:14:46.696Z,1022.26
2017-10-15T08:15:55.536Z,1022.24
2017-10-15T08:17:04.370Z,1022.29
2017-10-15T08:18:13.206Z,1022.27
2017-10-15T08:19:22.042Z,1022.25
2017-10-15T08:20:30.882Z,1022.25
2017-10-15T08:21:39.735Z,1022.26
2017-10-15T08:22:48.561Z,1022.27
2017-10-15T08:23:57.393Z,1022.28
2017-10-15T08:25:06.229Z,1022.27
2017-10-15T08:26:15.068Z,1022.26
2017-10-15T08:27:23.908Z,1022.27
2017-10-15T08:28:32.743Z,1022.26
2017-10-15T08:29:41.583Z,1022.2
2017-10-15T08:30:50.418Z,1022.23
2017-10-15T08:31:59.600Z,1022.19
2017-10-15T08:33:08.439Z,1022.19
2017-10-15T08:34:17.277Z,1022.21
2017-10-15T08:35:26.109Z,1022.19
2017-10-15T08:36:34.947Z,1022.16
2017-10-15T08:37:43.789Z,1022.15
2017-10-15T08:38:52.626Z,1022.19
2017-10-15T08:40:01.469Z,1022.16
2017-10-15T08:41:10.303Z,1022.18
2017-10-15T08:42:19.134Z,1022.16
2017-10-15T08:43:27.974Z,1022.16
2017-10-15T08:44:36.807Z,1022.16
2017-10-15T08:45:45.647Z,1022.11
2017-10-15T08:46:54.485Z,1022.12
2017-10-15T08:48:03.320Z,1022.11
2017-10-15T08:49:12.157Z,1022.12
2017-10-15T08:50:20.997Z,1022.11
2017-10-15T08:51:29.838Z,1022.11
2017-10-15T08:52:38.673Z,1022.11
2017-10-15T08:53:47.509Z,1022.04
2017-10-15T08:54:56.344Z,1022.09
2017-10-15T08:56:05.185Z,1022.07
2017-10-15T08:57:14.017Z,1022.11
2017-10-15T08:58:22.850Z,1022.12
2017-10-15T08:59:31.694Z,1022.12
2017-10-15T09:00:40.866Z,1022.14
2017-10-15T09:01:49.709Z,1022.14
2017-10-15T09:02:58.544Z,1022.17
2017-10-15T09:04:07.381Z,1022.14
2017-10-15T09:05:16.215Z,1022.15
2017-10-15T09:06:25.055Z,1022.16
2017-10-15T09:07:33.891Z,1022.15
2017-10-15T09:08:42.736Z,1022.16
2017-10-15T09:09:51.579Z,1022.2
2017-10-15T09:11:00.412Z,1022.16
2017-10-15T09:12:09.251Z,1022.15
2017-10-15T09:13:18.092Z,1022.19
2017-10-15T09:14:26.920Z,1022.18
2017-10-15T09:15:35.758Z,1022.17
2017-10-15T09:16:44.597Z,1022.21
2017-10-15T09:17:53.771Z,1022.18
2017-10-15T09:19:02.606Z,1022.24
2017-10-15T09:20:11.445Z,1022.21
2017-10-15T09:21:20.281Z,1022.2
2017-10-15T09:22:29.120Z,1022.21
2017-10-15T09:23:37.956Z,1022.17
2017-10-15T09:24:47.129Z,1022.2
2017-10-15T09:25:55.971Z,1022.12
2017-10-15T09:27:04.803Z,1022.16
2017-10-15T09:28:13.641Z,1022.17
2017-10-15T09:29:22.475Z,1022.17
2017-10-15T09:30:31.319Z,1022.16
2017-10-15T09:31:40.155Z,1022.14
2017-10-15T09:32:48.992Z,1022.14
2017-10-15T09:33:57.837Z,1022.14
2017-10-15T09:35:06.680Z,1022.15
2017-10-15T09:36:15.518Z,1022.11
2017-10-15T09:37:24.360Z,1022.1
2017-10-15T09:38:33.200Z,1022.12
2017-10-15T09:39:42.036Z,1022.1
2017-10-15T09:40:50.877Z,1022.05
2017-10-15T09:41:59.724Z,1022.03
2017-10-15T09:43:08.553Z,1022.02
2017-10-15T09:44:17.717Z,1022
2017-10-15T09:45:26.550Z,1022
2017-10-15T09:46:35.389Z,1022
2017-10-15T09:47:44.231Z,1022.04
2017-10-15T09:48:53.077Z,1022.02
2017-10-15T09:50:01.913Z,1022.03
2017-10-15T09:51:10.754Z,1022.04
2017-10-15T09:52:19.585Z,1022
2017-10-15T09:53:28.424Z,1022
2017-10-15T09:54:37.269Z,1022
2017-10-15T09:55:46.120Z,1022
2017-10-15T09:56:54.998Z,1021.98
2017-10-15T09:58:03.836Z,1021.98
2017-10-15T09:59:12.681Z,1021.98
2017-10-15T10:00:21.642Z,1021.98
2017-10-15T10:01:30.801Z,1022.03
2017-10-15T10:02:39.777Z,1021.99
2017-10-15T10:03:48.616Z,1021.97
2017-10-15T10:04:57.583Z,1022.02
2017-10-15T10:06:06.630Z,1021.92
2017-10-15T10:07:15.468Z,1021.93
2017-10-15T10:08:24.313Z,1021.9
2017-10-15T10:09:33.497Z,1021.93
2017-10-15T10:10:42.342Z,1021.9
2017-10-15T10:11:51.511Z,1021.88
2017-10-15T10:13:00.421Z,1021.88
2017-10-15T10:14:09.260Z,1021.87
2017-10-15T10:15:18.106Z,1021.9
2017-10-15T10:16:27.119Z,1021.84
2017-10-15T10:17:36.243Z,1021.84
2017-10-15T10:18:45.084Z,1021.88
2017-10-15T10:19:53.925Z,1021.86
2017-10-15T10:21:02.764Z,1021.87
2017-10-15T10:22:11.606Z,1021.84
2017-10-15T10:23:20.446Z,1021.85
2017-10-15T10:24:29.290Z,1021.86
2017-10-15T10:25:38.140Z,1021.81
2017-10-15T10:26:46.985Z,1021.82
2017-10-15T10:27:55.823Z,1021.81
2017-10-15T10:29:04.665Z,1021.76
2017-10-15T10:30:13.498Z,1021.75
2017-10-15T10:31:22.333Z,1021.72
2017-10-15T10:32:31.171Z,1021.74
2017-10-15T10:33:40.030Z,1021.75
2017-10-15T10:34:48.866Z,1021.74
2017-10-15T10:35:57.706Z,1021.7
2017-10-15T10:37:06.547Z,1021.68
2017-10-15T10:38:15.385Z,1021.66
2017-10-15T10:39:24.236Z,1021.68
2017-10-15T10:40:33.073Z,1021.6
2017-10-15T10:41:42.252Z,1021.61
2017-10-15T10:42:51.420Z,1021.6
2017-10-15T10:44:00.277Z,1021.62
2017-10-15T10:45:09.121Z,1021.56
2017-10-15T10:46:18.295Z,1021.57
2017-10-15T10:47:27.135Z,1021.59
2017-10-15T10:48:35.975Z,1021.61
2017-10-15T10:49:44.817Z,1021.63
2017-10-15T10:50:53.654Z,1021.59
2017-10-15T10:52:02.493Z,1021.55
2017-10-15T10:53:11.331Z,1021.56
2017-10-15T10:54:20.173Z,1021.58
2017-10-15T10:55:29.010Z,1021.55
2017-10-15T10:56:37.854Z,1021.52
2017-10-15T10:57:46.687Z,1021.49
2017-10-15T10:58:55.533Z,1021.51
2017-10-15T11:00:04.377Z,1021.46
2017-10-15T11:01:13.221Z,1021.47
2017-10-15T11:02:22.057Z,1021.43
2017-10-15T11:03:30.894Z,1021.44
2017-10-15T11:04:39.738Z,1021.43
2017-10-15T11:05:48.581Z,1021.41
2017-10-15T11:06:57.426Z,1021.39
2017-10-15T11:08:06.262Z,1021.42
2017-10-15T11:09:15.102Z,1021.39
2017-10-15T11:10:23.946Z,1021.41
2017-10-15T11:11:32.792Z,1021.36
2017-10-15T11:12:41.972Z,1021.34
2017-10-15T11:13:50.813Z,1021.32
2017-10-15T11:14:59.649Z,1021.3
2017-10-15T11:16:08.488Z,1021.27
2017-10-15T11:17:17.334Z,1021.3
2017-10-15T11:18:26.178Z,1021.27
2017-10-15T11:19:35.052Z,1021.23
2017-10-15T11:20:43.852Z,1021.26
2017-10-15T11:21:52.688Z,1021.19
2017-10-15T11:23:01.527Z,1021.22
2017-10-15T11:24:10.377Z,1021.21
2017-10-15T11:25:19.216Z,1021.17
2017-10-15T11:26:28.052Z,1021.14
2017-10-15T11:27:36.898Z,1021.13
2017-10-15T11:28:45.744Z,1021.09
2017-10-15T11:29:54.587Z,1021.04
2017-10-15T11:31:03.429Z,1021.05
2017-10-15T11:32:12.272Z,1021.05
2017-10-15T11:33:21.113Z,1021.07
2017-10-15T11:34:29.951Z,1021.02
2017-10-15T11:35:38.795Z,1020.99
2017-10-15T11:36:47.631Z,1020.98
2017-10-15T11:37:56.479Z,1020.93
2017-10-15T11:39:05.327Z,1020.94
2017-10-15T11:40:14.167Z,1020.93
2017-10-15T11:41:23.012Z,1020.94
2017-10-15T11:42:31.848Z,1020.93
2017-10-15T11:43:40.683Z,1020.91
2017-10-15T11:44:49.525Z,1020.94
2017-10-15T11:45:58.367Z,1020.94
2017-10-15T11:47:07.225Z,1020.94
2017-10-15T11:48:16.064Z,1020.89
2017-10-15T11:49:24.905Z,1020.9
2017-10-15T11:50:33.743Z,1020.92
2017-10-15T11:51:42.587Z,1020.87
2017-10-15T11:52:51.422Z,1020.85
2017-10-15T11:54:00.262Z,1020.83
2017-10-15T11:55:09.099Z,1020.82
2017-10-15T11:56:17.939Z,1020.83
2017-10-15T11:57:26.779Z,1020.8
2017-10-15T11:58:35.623Z,1020.84
2017-10-15T11:59:44.465Z,1020.82
2017-10-15T12:00:53.303Z,1020.75
2017-10-15T12:02:02.149Z,1020.77
2017-10-15T12:03:10.988Z,1020.77
2017-10-15T12:04:19.831Z,1020.72
2017-10-15T12:05:28.665Z,1020.69
2017-10-15T12:06:37.512Z,1020.68
2017-10-15T12:07:46.348Z,1020.72
2017-10-15T12:08:55.184Z,1020.66
2017-10-15T12:10:04.036Z,1020.67
2017-10-15T12:11:12.875Z,1020.7
2017-10-15T12:12:21.716Z,1020.66
2017-10-15T12:13:30.630Z,1020.61
2017-10-15T12:14:39.508Z,1020.6
2017-10-15T12:15:48.412Z,1020.63
2017-10-15T12:16:57.254Z,1020.56
2017-10-15T12:18:06.096Z,1020.59
2017-10-15T12:19:14.938Z,1020.57
2017-10-15T12:20:23.789Z,1020.58
2017-10-15T12:21:32.642Z,1020.58
2017-10-15T12:22:41.461Z,1020.53
2017-10-15T12:23:50.303Z,1020.56
2017-10-15T12:24:59.140Z,1020.5
2017-10-15T12:26:07.980Z,1020.53
2017-10-15T12:27:16.823Z,1020.51
2017-10-15T12:28:25.729Z,1020.49
2017-10-15T12:29:34.567Z,1020.54
2017-10-15T12:30:43.414Z,1020.53
2017-10-15T12:31:52.608Z,1020.55
2017-10-15T12:33:01.450Z,1020.52
2017-10-15T12:34:10.293Z,1020.5
2017-10-15T12:35:19.131Z,1020.52
2017-10-15T12:36:27.971Z,1020.5
2017-10-15T12:37:36.810Z,1020.5
2017-10-15T12:38:45.660Z,1020.5
2017-10-15T12:39:54.495Z,1020.51
2017-10-15T12:41:03.340Z,1020.48
2017-10-15T12:42:12.175Z,1020.49
2017-10-15T12:43:21.021Z,1020.43
2017-10-15T12:44:29.860Z,1020.43
2017-10-15T12:45:38.700Z,1020.42
2017-10-15T12:46:47.551Z,1020.4
2017-10-15T12:47:56.583Z,1020.43
2017-10-15T12:49:05.430Z,1020.38
2017-10-15T12:50:14.265Z,1020.37
2017-10-15T12:51:23.108Z,1020.35
2017-10-15T12:52:31.950Z,1020.35
2017-10-15T12:53:40.811Z,1020.36
2017-10-15T12:54:49.844Z,1020.31
2017-10-15T12:55:58.724Z,1020.31
2017-10-15T12:57:07.763Z,1020.29
2017-10-15T12:58:16.605Z,1020.27
2017-10-15T12:59:25.439Z,1020.26
2017-10-15T13:00:34.279Z,1020.26
2017-10-15T13:01:43.254Z,1020.25
2017-10-15T13:02:52.126Z,1020.28
2017-10-15T13:04:01.308Z,1020.24
2017-10-15T13:05:10.194Z,1020.25
2017-10-15T13:06:19.042Z,1020.21
2017-10-15T13:07:28.064Z,1020.22
2017-10-15T13:08:36.898Z,1020.18
2017-10-15T13:09:46.150Z,1020.17
2017-10-15T13:10:55.117Z,1020.18
2017-10-15T13:12:03.960Z,1020.13
2017-10-15T13:13:12.797Z,1020.11
2017-10-15T13:14:21.638Z,1020.1
2017-10-15T13:15:30.478Z,1020.1
2017-10-15T13:16:39.325Z,1020.1
2017-10-15T13:17:48.161Z,1020.08
2017-10-15T13:18:56.999Z,1020.07
2017-10-15T13:20:05.845Z,1020.05
2017-10-15T13:21:14.676Z,1020.06
2017-10-15T13:22:23.533Z,1020.03
2017-10-15T13:23:32.370Z,1020.01
2017-10-15T13:24:41.215Z,1020.04
2017-10-15T13:25:50.050Z,1020.01
2017-10-15T13:26:58.890Z,1020.02
2017-10-15T13:28:08.067Z,1019.96
2017-10-15T13:29:16.909Z,1020
2017-10-15T13:30:25.746Z,1019.99
2017-10-15T13:31:34.625Z,1019.94
2017-10-15T13:32:43.426Z,1019.96
2017-10-15T13:33:52.262Z,1019.91
2017-10-15T13:35:01.456Z,1019.9
2017-10-15T13:36:10.297Z,1019.93
2017-10-15T13:37:19.139Z,1019.93
2017-10-15T13:38:27.981Z,1019.9
2017-10-15T13:39:36.818Z,1019.83
2017-10-15T13:40:45.661Z,1019.86
2017-10-15T13:41:54.502Z,1019.82
2017-10-15T13:43:03.347Z,1019.87
2017-10-15T13:44:12.188Z,1019.83
2017-10-15T13:45:21.033Z,1019.81
2017-10-15T13:46:29.877Z,1019.78
2017-10-15T13:47:38.717Z,1019.77
2017-10-15T13:48:47.556Z,1019.78
2017-10-15T13:49:56.402Z,1019.77
2017-10-15T13:51:05.241Z,1019.73
2017-10-15T13:52:14.076Z,1019.73
2017-10-15T13:53:22.919Z,1019.73
2017-10-15T13:54:31.759Z,1019.76
2017-10-15T13:55:40.604Z,1019.75
2017-10-15T13:56:49.446Z,1019.74
2017-10-15T13:57:58.284Z,1019.76